Weather Top, Arizona (BMGR) Weather observations

Data are for 10 minute period ending at time listed.
 Day   Time   Solar   Ave.   Ave.  Ave.  Vector  Max.   Total    
  of    of     Rad.   Air    Rel.  Wind   Wind   Wind  Precip.   
Year   Day            Temp.  Hum.  Speed  Dir.   Gust            
2026   (MST)  Kw/m2    F      %     mph   deg.    mph    in.     
-----------------------------------------------------------------
 126    9:35   0.74   64.7    32    3.6   355     9.9    0.00 
 126    9:40   0.75   64.6    32    4.6   358     8.8    0.00 
 126    9:45   0.76   64.8    32    4.4    33     8.2    0.00 
 126    9:50   0.78   65.4    32    4.7   349     9.9    0.00 
 126    9:55   0.79   65.5    31    4.7   328     9.3    0.00 
 126   10:00   0.80   65.6    31    4.4   341     8.2    0.00 
 126   10:05   0.81   65.2    32    2.7    15     8.2    0.00 
 126   10:10   0.82   65.4    31    4.6    24     9.3    0.00 
 126   10:15   0.84   65.5    31    4.5   324     8.8    0.00 
 126   10:20   0.85   65.8    31    3.9   332     8.2    0.00 
 126   10:25   0.86   66.5    30    2.4   343     5.4    0.00 
 126   10:30   0.87   67.4    29    1.6    13     5.4    0.00 
 126   10:35   0.88   68.6    28    4.3    61     9.3    0.00 
 126   10:40   0.89   67.2    29    3.0    49     7.1    0.00 
 126   10:45   0.90   67.4    29    2.9    45     7.1    0.00 
 126   10:50   0.90   68.5    28    4.4    33     9.9    0.00 
 126   10:55   0.91   67.2    28    4.6    12     9.3    0.00 
 126   11:00   0.92   66.8    28    3.4    84     6.5    0.00 
 126   11:05   0.93   67.8    27    3.4   132     6.5    0.00 
 126   11:10   0.94   69.0    26    2.9   122     6.0    0.00 
 126   11:15   0.94   70.0    25    2.2   103     6.5    0.00 
 126   11:20   0.95   69.8    26    4.0    34     9.3    0.00 
 126   11:25   0.95   69.5    26    3.8     3     9.3    0.00 
 126   11:30   0.96   70.1    25    3.5   344     9.3    0.00 
 126   11:35   0.96   69.0    25    2.4   322     6.5    0.00 
 126   11:40   0.97   69.5    24    2.1    42     4.9    0.00 
 126   11:45   0.97   70.6    23    4.7   352     8.2    0.00 
 126   11:50   0.97   69.0    24    4.6     3     9.3    0.00 
 126   11:55   0.98   68.3    25    1.5     1     4.9    0.00 
 126   12:00   0.98   69.0    25    2.8   146     7.1    0.00 
 126   12:05   0.98   69.3    24    6.1   155     9.3    0.00 
 126   12:10   0.98   70.2    24    3.7   182     6.5    0.00 
 126   12:15   0.98   71.1    23    3.7   183     7.7    0.00 
 126   12:20   0.99   72.3    22    1.9    17     5.4    0.00 
 126   12:25   0.98   72.5    22    3.5   332     7.1    0.00 
 126   12:30   0.98   72.2    22    4.0    31     9.3    0.00 
 126   12:35   0.98   72.0    23    5.6    21     9.3    0.00 
 126   12:40   0.98   71.9    23    5.8   351    11.0    0.00 
 126   12:45   0.98   71.3    23    4.5    14     9.3    0.00 
 126   12:50   0.98   71.7    23    1.9     2     5.4    0.00 
 126   12:55   0.97   72.6    22    2.8    29     6.5    0.00 
 126   13:00   0.97   72.5    22    7.0    17    15.5    0.00 
 126   13:05   0.97   71.5    22    6.3     1    12.1    0.00 
 126   13:10   0.97   71.9    22    5.9   354    11.0    0.00 
 126   13:15   0.96   71.8    22    5.5    28    13.3    0.00 
 126   13:20   0.96   71.0    22    2.1   237     7.7    0.00 
 126   13:25   0.95   72.9    21    5.4   305    11.0    0.00 
 126   13:30   0.94   73.8    21    5.5   347     9.3    0.00 
 126   13:35   0.94   74.0    21    6.5   359    12.7    0.00 
 126   13:40   0.93   73.3    20    6.4   350     9.9    0.00 
 126   13:45   0.93   72.2    21    3.0   338     7.7    0.00 
 126   13:50   0.92   72.4    21    3.2   313    12.1    0.00 
 126   13:55   0.91   72.6    21    4.5   345    13.8    0.00 
 126   14:00   0.90   73.2    21    5.8    27    10.5    0.00 
 126   14:05   0.89   75.1    20    6.0   332    13.8    0.00 
 126   14:10   0.89   74.2    20    7.9   358    13.8    0.00 
 126   14:15   0.88   72.5    21    6.4    14    14.4    0.00 
 126   14:20   0.87   74.2    20    5.6    44    10.5    0.00 
 126   14:25   0.86   74.1    20    4.7    50    10.5    0.00 
 126   14:30   0.85   75.0    19    5.1    50    11.6    0.00 
 126   14:35   0.84   75.4    18    4.1    37     9.3    0.00 
 126   14:40   0.83   75.1    18    5.9     2    10.5    0.00 
 126   14:45   0.82   74.2    19    3.5    30     8.8    0.00 
 126   14:50   0.81   75.6    18    4.4    25    12.1    0.00 
 126   14:55   0.79   75.0    18    5.7    36     9.9    0.00 
 126   15:00   0.78   74.9    18    3.0    61     7.7    0.00 
 126   15:05   0.77   74.0    19    4.8   337    10.5    0.00 
 126   15:10   0.76   74.9    18    3.6   335     9.3    0.00 
 126   15:15   0.75   76.0    18    4.4   305     8.8    0.00 
 126   15:20   0.73   75.5    18    6.2    10    12.1    0.00 
 126   15:25   0.72   74.6    18    4.8   354    11.0    0.00 
 126   15:30   0.70   74.7    18    4.7   334    10.5    0.00 
 126   15:35   0.69   75.2    18    4.8   340    11.0    0.00 
 126   15:40   0.68   75.3    18    4.5     5     9.3    0.00 
 126   15:45   0.66   75.3    17    7.3    38    12.1    0.00 
 126   15:50   0.65   74.1    18    4.8    36     8.2    0.00 
 126   15:55   0.63   75.2    17    3.4    51     7.7    0.00 
 126   16:00   0.62   74.6    18    5.3    50     9.3    0.00 
 126   16:05   0.60   76.2    17    5.0     0    10.5    0.00 
 126   16:10   0.59   75.0    18    4.2   330     7.1    0.00 
 126   16:15   0.57   75.4    17    4.0   309     9.9    0.00 
 126   16:20   0.56   77.0    17    7.3   356    12.7    0.00 
 126   16:25   0.54   75.6    17    6.0   340    12.1    0.00 
 126   16:30   0.52   76.3    17    2.5   355     7.7    0.00 
 126   16:35   0.51   77.9    16    6.0   348    11.6    0.00 
 126   16:40   0.49   78.4    16    5.6     2    13.8    0.00 
 126   16:45   0.47   77.5    16    5.1   332    10.5    0.00 
 126   16:50   0.45   76.9    17    7.4   333    13.3    0.00 
 126   16:55   0.44   76.4    17    7.7   334    16.6    0.00 
 126   17:00   0.42   75.8    17    6.7   322    14.4    0.00 
 126   17:05   0.40   76.8    17    6.6   344    11.0    0.00 
 126   17:10   0.38   77.5    16    4.8   337     9.3    0.00 
 126   17:15   0.37   77.1    16    6.6   349    10.5    0.00 
 126   17:20   0.35   75.9    17    5.3   342    12.1    0.00 
 126   17:25   0.33   76.2    17    5.6   351    12.1    0.00 
 126   17:30   0.32   77.0    16    6.9   328    11.6    0.00 
 126   17:35   0.30   76.1    17    6.4   318    12.7    0.00 
 126   17:40   0.28   76.1    17    5.0   341    10.5    0.00 
 126   17:45   0.26   75.5    17    5.5   340    11.0    0.00 
 126   17:50   0.25   76.0    17    5.3   330     8.8    0.00 
 126   17:55   0.23   76.5    16    5.6   307    11.6    0.00 
 126   18:00   0.21   76.3    17    5.0   315    11.6    0.00 
 126   18:05   0.20   76.5    16    6.0   336    11.6    0.00 
 126   18:10   0.18   75.7    16    6.4   342     9.9    0.00 
 126   18:15   0.16   74.9    17    5.7    16     9.9    0.00 
 126   18:20   0.15   75.9    16    3.8    22     6.5    0.00 
 126   18:25   0.13   75.9    16    3.4   354     7.7    0.00 
 126   18:30   0.12   75.7    17    4.4   334    11.0    0.00 
 126   18:35   0.11   75.7    16    4.3   312     9.9    0.00 
 126   18:40   0.09   75.5    16    4.3   306     8.8    0.00 
 126   18:45   0.08   75.0    17    3.3   327     7.1    0.00 
 126   18:50   0.07   75.0    16    4.3   342     7.1    0.00 
 126   18:55   0.05   74.6    17    4.6   335     8.8    0.00 
 126   19:00   0.04   74.1    17    4.5   330     8.2    0.00 
 126   19:05   0.03   74.1    17    3.1   328     6.5    0.00 
 126   19:10   0.02   73.9    17    3.7   307     7.7    0.00 
 126   19:15   0.01   73.4    17    3.5   340     7.1    0.00 
 126   19:20   0.01   73.0    17    3.6   340     8.2    0.00 
 126   19:25   0.00   72.6    17    3.0    49     5.4    0.00 
 126   19:30   0.00   72.4    17    2.6    27     4.9    0.00 
 126   19:35   0.00   72.1    18    2.4    15     4.9    0.00 
 126   19:40   0.00   72.0    18    3.0     4     5.4    0.00 
 126   19:45   0.00   71.9    18    3.9     2     7.7    0.00 
 126   19:50   0.00   71.8    18    3.3     8     5.4    0.00 
 126   19:55   0.00   71.5    18    2.7   360     5.4    0.00 
 126   20:00   0.00   71.4    18    3.0     5     5.4    0.00 
 126   20:05   0.00   71.5    18    2.4   330     6.0    0.00 
 126   20:10   0.00   71.4    18    2.7   294     6.0    0.00 
 126   20:15   0.00   71.1    18    2.7   308     6.5    0.00 
 126   20:20   0.00   71.0    18    2.1   300     5.4    0.00 
 126   20:25   0.00   70.8    18    1.2   305     4.3    0.00 
 126   20:30   0.00   70.6    18    1.6   310     5.4    0.00 
 126   20:35   0.00   70.4    18    2.0   322     5.4    0.00 
 126   20:40   0.00   70.3    18    2.7   308     7.7    0.00 
 126   20:45   0.00   70.3    18    3.1   309     6.0    0.00 
 126   20:50   0.00   70.3    18    3.5   304     7.7    0.00 
 126   20:55   0.00   70.3    18    3.2   296     7.7    0.00 
 126   21:00   0.00   70.3    18    3.2   304     7.1    0.00 
 126   21:05   0.00   70.2    18    2.7   233     5.4    0.00 
 126   21:10   0.00   69.5    18    0.6   174     4.3    0.00 
 126   21:15   0.00   69.0    19    0.7   206     3.8    0.00 
 126   21:20   0.00   69.0    19    2.7   324     7.1    0.00 
 126   21:25   0.00   69.5    19    4.3   321     8.2    0.00 
 126   21:30   0.00   69.5    20    3.9   332     7.7    0.00 
 126   21:35   0.00   69.4    20    3.8   329     7.1    0.00 
 126   21:40   0.00   69.3    20    3.7   344     8.2    0.00 
 126   21:45   0.00   69.2    20    2.8   324     8.2    0.00 
 126   21:50   0.00   69.2    20    3.6   308     7.7    0.00 
 126   21:55   0.00   69.2    20    3.0   310     6.5    0.00 
 126   22:00   0.00   69.1    20    2.8   330     6.0    0.00 
 126   22:05   0.00   69.0    20    3.4   332     6.5    0.00 
 126   22:10   0.00   69.1    20    3.3   302     6.5    0.00 
 126   22:15   0.00   69.1    20    2.8   302     5.4    0.00 
 126   22:20   0.00   69.2    20    3.8   303     7.7    0.00 
 126   22:25   0.00   69.2    20    3.9   302     7.1    0.00 
 126   22:30   0.00   69.3    20    3.8   307     7.7    0.00 
 126   22:35   0.00   69.1    20    3.6   308     7.1    0.00 
 126   22:40   0.00   69.0    20    3.2   312     7.7    0.00 
 126   22:45   0.00   69.2    20    4.7   311     8.8    0.00 
 126   22:50   0.00   69.0    20    3.4   312     7.1    0.00 
 126   22:55   0.00   68.9    20    2.3   313     6.0    0.00 
 126   23:00   0.00   68.7    20    2.0   314     4.9    0.00 
 126   23:05   0.00   68.7    20    2.8   315     5.4    0.00 
 126   23:10   0.00   68.8    20    3.5   323     6.0    0.00 
 126   23:15   0.00   68.9    20    3.9   331     7.1    0.00 
 126   23:20   0.00   69.0    20    4.2   327     7.7    0.00 
 126   23:25   0.00   68.8    20    3.7   334     6.5    0.00 
 126   23:30   0.00   68.6    20    3.8   338     6.5    0.00 
 126   23:35   0.00   68.6    20    4.3   334     7.1    0.00 
 126   23:40   0.00   68.7    20    3.8   333     6.5    0.00 
 126   23:45   0.00   68.5    20    4.2   333     7.1    0.00 
 126   23:50   0.00   68.4    20    2.2   350     5.4    0.00 
 126   23:55   0.00   67.9    21    2.6    16     6.0    0.00 
 127    0:00   0.00   68.2    21    4.0    16     7.1    0.00 
 127    0:05   0.00   68.1    20    4.7    16     6.5    0.00 
 127    0:10   0.00   68.2    20    4.8     6     6.5    0.00 
 127    0:15   0.00   68.0    20    3.8     6     5.4    0.00 
 127    0:20   0.00   67.7    20    3.5   355     5.4    0.00 
 127    0:25   0.00   67.7    20    4.0     6     7.7    0.00 
 127    0:30   0.00   67.7    20    4.4   355     6.5    0.00 
 127    0:35   0.00   67.7    20    3.6   349     8.2    0.00 
 127    0:40   0.00   67.4    20    3.7   351     6.5    0.00 
 127    0:45   0.00   67.4    20    4.3   357     7.1    0.00 
 127    0:50   0.00   67.4    20    4.8   360     7.7    0.00 
 127    0:55   0.00   67.5    20    5.2   350     7.7    0.00 
 127    1:00   0.00   67.5    19    5.8   343     9.9    0.00 
 127    1:05   0.00   67.5    19    5.1   342     7.7    0.00 
 127    1:10   0.00   67.3    19    4.2   344     7.1    0.00 
 127    1:15   0.00   67.2    19    4.0   347     6.5    0.00 
 127    1:20   0.00   67.1    19    3.8   345     6.5    0.00 
 127    1:25   0.00   67.5    19    4.7   332     7.1    0.00 
 127    1:30   0.00   67.2    19    3.5   324     5.4    0.00 
 127    1:35   0.00   67.1    19    3.1   317     5.4    0.00 
 127    1:40   0.00   67.0    19    3.6   311     6.5    0.00 
 127    1:45   0.00   67.1    20    3.8   316     7.1    0.00 
 127    1:50   0.00   67.3    20    4.3   314     7.1    0.00 
 127    1:55   0.00   67.2    20    4.7   311     7.7    0.00 
 127    2:00   0.00   67.1    20    4.3   322     7.7    0.00 
 127    2:05   0.00   66.9    20    3.5   321     6.0    0.00 
 127    2:10   0.00   66.9    20    3.9   314     6.5    0.00 
 127    2:15   0.00   66.8    20    3.2   319     5.4    0.00 
 127    2:20   0.00   66.8    20    3.2   325     6.5    0.00 
 127    2:25   0.00   66.7    21    3.4   328     5.4    0.00 
 127    2:30   0.00   66.8    21    3.7   329     5.4    0.00 
 127    2:35   0.00   66.7    21    3.7   331     5.4    0.00 
 127    2:40   0.00   66.5    21    4.0   328     5.4    0.00 
 127    2:45   0.00   66.5    21    3.9   336     5.4    0.00 
 127    2:50   0.00   66.6    22    4.6   336     6.0    0.00 
 127    2:55   0.00   66.6    23    4.0   341     6.5    0.00 
 127    3:00   0.00   66.5    24    4.0   340     6.0    0.00 
 127    3:05   0.00   66.6    24    3.9   336     5.4    0.00 
 127    3:10   0.00   66.5    24    3.3   335     4.3    0.00 
 127    3:15   0.00   66.5    24    3.0   332     3.8    0.00 
 127    3:20   0.00   66.5    26    3.0   338     3.8    0.00 
 127    3:25   0.00   66.5    27    2.4   340     3.8    0.00 
 127    3:30   0.00   66.3    28    1.1   351     2.6    0.00 
 127    3:35   0.00   66.1    29    1.0     8     2.6    0.00 
 127    3:40   0.00   66.4    30    0.9     4     2.6    0.00 
 127    3:45   0.00   66.4    30    1.5   344     3.8    0.00 
 127    3:50   0.00   66.5    29    1.4   345     3.2    0.00 
 127    3:55   0.00   66.5    29    3.1   339     4.9    0.00 
 127    4:00   0.00   66.5    29    3.6   338     4.9    0.00 
 127    4:05   0.00   66.5    28    4.1   335     5.4    0.00 
 127    4:10   0.00   66.3    27    4.1   338     4.9    0.00 
 127    4:15   0.00   66.2    27    3.0   346     4.9    0.00 
 127    4:20   0.00   65.9    28    2.8   345     5.4    0.00 
 127    4:25   0.00   65.9    28    2.1   353     4.3    0.00 
 127    4:30   0.00   65.5    28    2.4     3     3.8    0.00 
 127    4:35   0.00   65.4    28    3.0     3     4.3    0.00 
 127    4:40   0.00   65.4    26    3.1     3     4.9    0.00 
 127    4:45   0.00   65.2    27    3.8    10     5.4    0.00 
 127    4:50   0.00   65.3    27    3.5   360     5.4    0.00 
 127    4:55   0.00   65.2    28    3.6     8     4.9    0.00 
 127    5:00   0.00   65.2    29    3.6    14     5.4    0.00 
 127    5:05   0.00   65.0    30    3.6    11     5.4    0.00 
 127    5:10   0.00   65.0    30    4.5    23     6.5    0.00 
 127    5:15   0.00   65.5    30    5.6    26     7.7    0.00 
 127    5:20   0.00   65.7    30    5.2    23     8.2    0.00 
 127    5:25   0.00   65.6    30    6.0    30     8.2    0.00 
 127    5:30   0.00   65.8    30    6.3    27     8.2    0.00 
 127    5:35   0.00   65.9    29    5.7    28     7.7    0.00 
 127    5:40   0.01   66.0    29    5.0    25     8.2    0.00 
 127    5:45   0.01   65.9    29    4.5    28     6.0    0.00 
 127    5:50   0.02   65.9    29    4.0    32     6.0    0.00 
 127    5:55   0.03   65.8    29    4.1    44     4.9    0.00 
 127    6:00   0.04   65.9    29    4.4    57     4.9    0.00 
 127    6:05   0.06   66.3    29    4.1    58     4.9    0.00 
 127    6:10   0.07   66.6    28    3.8    64     4.3    0.00 
 127    6:15   0.08   66.9    28    3.1    61     4.3    0.00 
 127    6:20   0.10   67.3    28    1.3    48     3.2    0.00 
 127    6:25   0.11   68.0    28    1.7    32     2.6    0.00 
 127    6:30   0.13   68.6    27    2.1    44     3.2    0.00 
 127    6:35   0.14   68.9    27    2.7    45     4.9    0.00 
 127    6:40   0.16   69.2    26    3.2    42     4.3    0.00 
 127    6:45   0.17   69.6    26    3.4    36     4.9    0.00 
 127    6:50   0.19   70.1    25    3.8    40     4.9    0.00 
 127    6:55   0.21   70.3    24    4.0    37     5.4    0.00 
 127    7:00   0.22   70.5    24    3.9    37     6.0    0.00 
 127    7:05   0.24   70.8    24    2.9    55     6.0    0.00 
 127    7:10   0.26   70.9    24    4.3    25     6.5    0.00 
 127    7:15   0.28   71.2    24    4.3    27     6.0    0.00 
 127    7:20   0.29   71.4    23    4.4    27     6.5    0.00 
 127    7:25   0.31   71.7    23    4.7    24     7.1    0.00 
 127    7:30   0.33   71.8    23    5.3    34     8.2    0.00 
 127    7:35   0.35   72.2    22    5.0    27     7.1    0.00 
 127    7:40   0.36   72.1    22    6.1    37     9.3    0.00 
 127    7:45   0.38   72.5    22    4.7    39     9.3    0.00 
 127    7:50   0.40   72.5    22    6.0    36     9.9    0.00 
 127    7:55   0.42   72.6    22    4.2    30     6.5    0.00 
 127    8:00   0.44   72.2    22    5.4    28     8.2    0.00 
 127    8:05   0.45   71.9    22    4.3    29     6.5    0.00 
 127    8:10   0.47   72.3    22    3.4    13     6.5    0.00 
 127    8:15   0.49   72.8    22    2.7    17     6.0    0.00 
 127    8:20   0.50   73.2    22    2.8    13     6.0    0.00 
 127    8:25   0.52   73.5    22    3.2    11     5.4    0.00 
 127    8:30   0.54   72.7    22    3.2    18     5.4    0.00 
 127    8:35   0.55   72.9    22    4.1    16     6.5    0.00 
 127    8:40   0.57   73.2    22    2.8   348     6.0    0.00 
 127    8:45   0.58   73.6    22    2.9     5     6.5    0.00 
 127    8:50   0.60   74.0    21    2.9    11     4.9    0.00 
 127    8:55   0.62   74.1    21    3.3   348     6.5    0.00 
 127    9:00   0.63   74.1    21    1.3    44     3.8    0.00 
 127    9:05   0.65   75.0    21    2.5   336     6.5    0.00 
 127    9:10   0.66   74.2    21    3.3    40     7.1    0.00 
 127    9:15   0.68   74.2    21    2.0   149     4.3    0.00 
 127    9:20   0.69   74.8    21    3.2   354     6.5    0.00 
 127    9:25   0.70   74.9    21    1.9   344     5.4    0.00 
 127    9:30   0.72   75.3    21    3.1   348     6.0    0.00 

Return to Weather Top graphs page.


Western Regional Climate Center,wrcc@dri.edu